Time;durP1;ratioP1;P1;durP2;ratioP2;P2;SDS_P1;SDS_P2;PMS_P1;PMS_P2;Temp;Humidity;BMP_temperature;BMP_pressure;BME280_temperature;BME280_humidity;BME280_pressure;Samples;Min_cycle;Max_cycle;Signal;HPM_P1;HPM_P2
2023/06/22 00:00:51;;;;;;;9.20;5.85;;;;;;;;;;4959567;28;20054;-79
2023/06/22 00:03:19;;;;;;;8.13;5.60;;;;;;;;;;4959394;28;20039;-80
2023/06/22 00:05:45;;;;;;;6.78;5.50;;;;;;;;;;4959304;28;20053;-79
2023/06/22 00:08:10;;;;;;;9.35;5.53;;;;;;;;;;4959350;28;20466;-79
2023/06/22 00:10:36;;;;;;;7.47;5.65;;;;;;;;;;4958700;29;20039;-79
2023/06/22 00:13:01;;;;;;;7.30;5.22;;;;;;;;;;4957787;29;20118;-77
2023/06/22 00:15:26;;;;;;;9.70;5.47;;;;;;;;;;4959043;29;20031;-79
2023/06/22 00:17:52;;;;;;;7.35;5.28;;;;;;;;;;4958467;28;20027;-79
2023/06/22 00:20:18;;;;;;;6.95;5.50;;;;;;;;;;4958723;29;20020;-79
2023/06/22 00:22:43;;;;;;;7.47;5.20;;;;;;;;;;4957524;29;20034;-80
2023/06/22 00:25:09;;;;;;;6.47;5.13;;;;;;;;;;4958545;28;20023;-79
2023/06/22 00:27:35;;;;;;;7.53;5.63;;;;;;;;;;4958340;28;20106;-80
2023/06/22 00:30:01;;;;;;;9.13;5.63;;;;;;;;;;4958376;28;20048;-79
2023/06/22 00:32:26;;;;;;;7.20;6.00;;;;;;;;;;4957231;29;20112;-79
2023/06/22 00:34:51;;;;;;;7.88;5.30;;;;;;;;;;4957251;29;20422;-79
2023/06/22 00:37:17;;;;;;;9.60;5.47;;;;;;;;;;4956994;28;20039;-80
2023/06/22 00:39:43;;;;;;;11.55;5.43;;;;;;;;;;4958303;28;20035;-80
2023/06/22 00:42:08;;;;;;;10.45;5.72;;;;;;;;;;4957803;28;20493;-80
2023/06/22 00:44:35;;;;;;;7.35;5.57;;;;;;;;;;4958546;29;20113;-80
2023/06/22 00:47:00;;;;;;;9.18;5.32;;;;;;;;;;4958557;28;20031;-80
2023/06/22 00:49:25;;;;;;;7.20;5.57;;;;;;;;;;4958239;28;20454;-80
2023/06/22 00:51:52;;;;;;;8.13;5.25;;;;;;;;;;4956623;28;20027;-80
2023/06/22 00:54:24;;;;;;;7.10;5.45;;;;;;;;;;4958114;28;20037;-80
2023/06/22 00:56:54;;;;;;;7.93;5.50;;;;;;;;;;4956214;29;20086;-80
2023/06/22 00:59:20;;;;;;;13.73;5.90;;;;;;;;;;4956756;28;20090;-80
2023/06/22 01:01:45;;;;;;;6.95;5.68;;;;;;;;;;4957413;29;20111;-79
2023/06/22 01:04:11;;;;;;;8.33;5.57;;;;;;;;;;4957942;29;20050;-80
2023/06/22 01:06:45;;;;;;;6.53;5.20;;;;;;;;;;4958248;29;20253;-80
2023/06/22 01:09:15;;;;;;;;;;;;;;;;;;4959035;28;20031;-80
2023/06/22 01:11:45;;;;;;;7.05;5.50;;;;;;;;;;4956543;28;20013;-80
2023/06/22 01:14:33;;;;;;;7.57;5.50;;;;;;;;;;4956659;28;20030;-80
2023/06/22 01:17:01;;;;;;;7.38;5.60;;;;;;;;;;4954458;29;20046;-80
2023/06/22 01:19:35;;;;;;;7.50;5.50;;;;;;;;;;4957443;29;20478;-79
2023/06/22 01:22:03;;;;;;;7.85;5.53;;;;;;;;;;4957075;29;20118;-80
2023/06/22 01:24:36;;;;;;;7.05;5.72;;;;;;;;;;4958256;28;20080;-80
2023/06/22 01:27:28;;;;;;;7.30;5.55;;;;;;;;;;4958512;28;20063;-79
2023/06/22 01:30:05;;;;;;;9.35;6.15;;;;;;;;;;4956765;29;20034;-79
2023/06/22 01:32:34;;;;;;;6.65;5.20;;;;;;;;;;4958002;28;20029;-79
2023/06/22 01:35:03;;;;;;;6.93;5.65;;;;;;;;;;4958267;29;20403;-79
2023/06/22 01:37:29;;;;;;;6.43;5.50;;;;;;;;;;4956968;29;20459;-80
2023/06/22 01:39:56;;;;;;;9.18;5.70;;;;;;;;;;4957897;28;20106;-79
2023/06/22 01:42:24;;;;;;;7.43;5.95;;;;;;;;;;4956794;29;20051;-80
2023/06/22 01:44:50;;;;;;;8.02;6.28;;;;;;;;;;4957937;28;20100;-80
2023/06/22 01:47:16;;;;;;;8.50;5.95;;;;;;;;;;4957176;28;20104;-79
2023/06/22 01:49:42;;;;;;;8.23;5.93;;;;;;;;;;4957838;29;20082;-80
2023/06/22 01:52:07;;;;;;;8.55;6.22;;;;;;;;;;4957617;29;20059;-80
2023/06/22 01:54:32;;;;;;;12.60;5.87;;;;;;;;;;4956273;29;20113;-80
2023/06/22 01:56:58;;;;;;;6.28;5.35;;;;;;;;;;4955530;29;20312;-79
2023/06/22 01:59:37;;;;;;;8.95;6.15;;;;;;;;;;4956301;29;20066;-79
2023/06/22 02:02:07;;;;;;;7.63;5.90;;;;;;;;;;4957386;28;20055;-80
2023/06/22 02:04:43;;;;;;;7.40;5.78;;;;;;;;;;4957785;28;20062;-80
2023/06/22 02:07:13;;;;;;;10.18;5.80;;;;;;;;;;4957244;28;20054;-80
2023/06/22 02:09:47;;;;;;;12.00;6.07;;;;;;;;;;4957507;28;20038;-80
2023/06/22 02:12:16;;;;;;;7.75;5.80;;;;;;;;;;4957205;28;20023;-80
2023/06/22 02:14:42;;;;;;;8.18;5.95;;;;;;;;;;4957390;28;20027;-80
2023/06/22 02:17:09;;;;;;;8.43;6.00;;;;;;;;;;4957035;29;20494;-80
2023/06/22 02:19:38;;;;;;;7.53;5.78;;;;;;;;;;4956280;28;20019;-80
2023/06/22 02:22:04;;;;;;;10.95;5.60;;;;;;;;;;4957601;29;20082;-80
2023/06/22 02:24:31;;;;;;;9.73;5.90;;;;;;;;;;4957769;28;20031;-79
2023/06/22 02:27:01;;;;;;;10.68;5.60;;;;;;;;;;4957251;29;20447;-79
2023/06/22 02:29:27;;;;;;;9.68;5.85;;;;;;;;;;4957071;28;20038;-80
2023/06/22 02:31:54;;;;;;;8.75;6.18;;;;;;;;;;4957051;28;20027;-80
2023/06/22 02:34:19;;;;;;;13.77;5.88;;;;;;;;;;4955841;28;20482;-79
2023/06/22 02:36:50;;;;;;;8.05;5.70;;;;;;;;;;4956024;29;20031;-79
2023/06/22 02:39:23;;;;;;;7.60;5.75;;;;;;;;;;4956981;28;20034;-80
2023/06/22 02:41:50;;;;;;;8.07;6.13;;;;;;;;;;4957480;28;20027;-80
2023/06/22 02:44:16;;;;;;;7.50;5.93;;;;;;;;;;4957224;28;20032;-80
2023/06/22 02:46:41;;;;;;;10.70;6.10;;;;;;;;;;4955636;29;20130;-80
2023/06/22 02:49:06;;;;;;;7.53;6.00;;;;;;;;;;4957492;28;20032;-80
2023/06/22 02:51:33;;;;;;;7.95;5.75;;;;;;;;;;4957363;29;20106;-80
2023/06/22 02:53:59;;;;;;;8.73;5.93;;;;;;;;;;4955620;28;20494;-80
2023/06/22 02:56:24;;;;;;;11.80;6.20;;;;;;;;;;4956845;29;20065;-80
2023/06/22 02:58:49;;;;;;;7.57;5.93;;;;;;;;;;4955970;28;20586;-80
2023/06/22 03:01:15;;;;;;;10.35;6.38;;;;;;;;;;4960023;29;20090;-80
2023/06/22 03:03:40;;;;;;;10.35;5.80;;;;;;;;;;4960784;29;20470;-80
2023/06/22 03:06:06;;;;;;;8.23;5.93;;;;;;;;;;4959369;29;20027;-79
2023/06/22 03:08:31;;;;;;;9.80;6.27;;;;;;;;;;4959071;29;20092;-78
2023/06/22 03:10:56;;;;;;;9.00;6.47;;;;;;;;;;4960027;29;20276;-80
2023/06/22 03:13:21;;;;;;;8.23;6.07;;;;;;;;;;4964954;29;20253;-80
2023/06/22 03:15:46;;;;;;;7.50;5.85;;;;;;;;;;4970393;28;20344;-79
2023/06/22 03:18:12;;;;;;;7.88;5.93;;;;;;;;;;4970981;29;20027;-80
2023/06/22 03:20:37;;;;;;;8.07;6.28;;;;;;;;;;4969804;28;20035;-80
2023/06/22 03:23:03;;;;;;;10.07;6.15;;;;;;;;;;4968319;29;20051;-81
2023/06/22 03:25:28;;;;;;;8.82;6.30;;;;;;;;;;4959858;29;20019;-80
2023/06/22 03:27:53;;;;;;;7.80;5.70;;;;;;;;;;4959457;29;20031;-80
2023/06/22 03:30:18;;;;;;;8.77;6.57;;;;;;;;;;4959703;29;20263;-80
2023/06/22 03:32:43;;;;;;;7.57;6.13;;;;;;;;;;4958127;29;20258;-80
2023/06/22 03:35:09;;;;;;;7.80;5.85;;;;;;;;;;4958592;28;20352;-80
2023/06/22 03:37:34;;;;;;;7.65;6.18;;;;;;;;;;4959712;29;20023;-80
2023/06/22 03:39:59;;;;;;;8.68;6.18;;;;;;;;;;4959920;29;20087;-80
2023/06/22 03:42:25;;;;;;;9.13;6.03;;;;;;;;;;4959661;29;20037;-80
2023/06/22 03:44:50;;;;;;;8.90;5.82;;;;;;;;;;4959662;29;20119;-80
2023/06/22 03:47:17;;;;;;;9.73;6.53;;;;;;;;;;4959738;29;20031;-80
2023/06/22 03:49:42;;;;;;;11.25;5.97;;;;;;;;;;4959368;28;20285;-79
2023/06/22 03:52:07;;;;;;;8.93;6.32;;;;;;;;;;4959621;29;20077;-80
2023/06/22 03:54:32;;;;;;;8.82;5.82;;;;;;;;;;4959384;29;20513;-80
2023/06/22 03:56:58;;;;;;;7.90;6.30;;;;;;;;;;4958083;29;20035;-80
2023/06/22 03:59:24;;;;;;;11.50;5.90;;;;;;;;;;4959275;29;20257;-80
2023/06/22 04:01:49;;;;;;;10.00;6.30;;;;;;;;;;4959303;28;20023;-80
2023/06/22 04:04:15;;;;;;;7.18;5.85;;;;;;;;;;4959143;29;20542;-80
2023/06/22 04:06:40;;;;;;;7.30;6.17;;;;;;;;;;4959412;29;20073;-80
2023/06/22 04:09:06;;;;;;;9.10;6.37;;;;;;;;;;4957897;29;20320;-80
2023/06/22 04:11:31;;;;;;;7.65;6.35;;;;;;;;;;4957302;28;20268;-80
2023/06/22 04:13:56;;;;;;;8.75;6.28;;;;;;;;;;4957222;29;20062;-80
2023/06/22 04:16:21;;;;;;;30.95;16.92;;;;;;;;;;4958683;28;20023;-80
2023/06/22 04:18:47;;;;;;;12.57;6.60;;;;;;;;;;4957433;28;20019;-80
2023/06/22 04:21:13;;;;;;;13.00;8.33;;;;;;;;;;4957208;29;20256;-79
2023/06/22 04:23:38;;;;;;;7.70;6.32;;;;;;;;;;4957194;29;20315;-79
2023/06/22 04:26:03;;;;;;;8.98;6.57;;;;;;;;;;4957458;29;20114;-79
2023/06/22 04:28:28;;;;;;;9.73;7.20;;;;;;;;;;4957129;29;20031;-79
2023/06/22 04:30:58;;;;;;;12.70;6.20;;;;;;;;;;4958561;29;20275;-79
2023/06/22 04:33:23;;;;;;;12.65;6.53;;;;;;;;;;4958252;29;20268;-78
2023/06/22 04:35:48;;;;;;;11.65;6.80;;;;;;;;;;4956571;29;20362;-78
2023/06/22 04:38:13;;;;;;;8.47;6.70;;;;;;;;;;4957607;29;20023;-78
2023/06/22 04:40:39;;;;;;;12.07;6.80;;;;;;;;;;4958023;29;20261;-79
2023/06/22 04:43:06;;;;;;;14.05;6.38;;;;;;;;;;4958272;29;20312;-78
2023/06/22 04:45:32;;;;;;;9.75;6.95;;;;;;;;;;4957266;29;20384;-79
2023/06/22 04:47:58;;;;;;;11.60;7.00;;;;;;;;;;4957758;28;20078;-79
2023/06/22 04:50:23;;;;;;;7.55;6.00;;;;;;;;;;4958858;29;20118;-78
2023/06/22 04:52:49;;;;;;;9.77;6.85;;;;;;;;;;4958334;28;20027;-79
2023/06/22 04:55:18;;;;;;;8.75;6.90;;;;;;;;;;4958684;28;20038;-78
2023/06/22 06:29:28;;;;;;;8.75;6.40;;;;;;;;;;5153639;22;20053;-78
2023/06/22 06:32:49;;;;;;;10.70;6.30;;;;;;;;;;5015005;28;20133;-79
2023/06/22 06:52:32;;;;;;;8.50;5.78;;;;;;;;;;5286770;22;20123;-76
2023/06/22 06:54:58;;;;;;;7.30;5.80;;;;;;;;;;5038095;28;20033;-79
2023/06/22 06:57:23;;;;;;;12.85;6.75;;;;;;;;;;5022069;28;20021;-78
2023/06/22 06:59:49;;;;;;;13.50;6.63;;;;;;;;;;5036636;28;20017;-75
2023/06/22 07:02:15;;;;;;;13.10;6.75;;;;;;;;;;5035920;28;20441;-75
2023/06/22 07:04:41;;;;;;;10.43;6.82;;;;;;;;;;5036303;28;20076;-75
2023/06/22 07:07:06;;;;;;;7.65;6.03;;;;;;;;;;5035982;28;20021;-75
2023/06/22 07:09:31;;;;;;;12.27;7.20;;;;;;;;;;5036055;28;20065;-76
2023/06/22 07:11:56;;;;;;;9.82;6.70;;;;;;;;;;5020395;28;20052;-74
2023/06/22 07:14:22;;;;;;;14.73;6.80;;;;;;;;;;5038644;28;20028;-75
2023/06/22 07:16:47;;;;;;;12.53;7.80;;;;;;;;;;5021558;28;20029;-75
2023/06/22 07:19:13;;;;;;;9.20;7.07;;;;;;;;;;5039910;28;20265;-75
2023/06/22 07:21:39;;;;;;;8.13;6.60;;;;;;;;;;5039360;28;20029;-75
2023/06/22 07:24:05;;;;;;;13.00;6.63;;;;;;;;;;5021111;28;20090;-76
2023/06/22 07:26:31;;;;;;;12.20;6.55;;;;;;;;;;5017745;28;20022;-76
2023/06/22 07:28:56;;;;;;;9.82;6.47;;;;;;;;;;5018770;28;20028;-79
2023/06/22 07:31:21;;;;;;;11.07;6.87;;;;;;;;;;5036957;28;20048;-75
2023/06/22 07:33:46;;;;;;;10.47;6.83;;;;;;;;;;5037026;28;20263;-77
2023/06/22 07:36:12;;;;;;;8.87;6.23;;;;;;;;;;5039025;28;20033;-76
2023/06/22 07:38:37;;;;;;;8.85;6.50;;;;;;;;;;5036592;28;20101;-76
2023/06/22 07:41:05;;;;;;;14.07;6.70;;;;;;;;;;5038566;28;20064;-78
2023/06/22 07:43:32;;;;;;;9.27;6.60;;;;;;;;;;5040472;28;20071;-83
2023/06/22 07:45:58;;;;;;;7.43;6.28;;;;;;;;;;5036187;28;20152;-77
2023/06/22 07:48:23;;;;;;;10.13;6.82;;;;;;;;;;5018311;28;20472;-77
2023/06/22 07:50:49;;;;;;;43.90;18.47;;;;;;;;;;5036358;28;20072;-77
2023/06/22 07:53:14;;;;;;;11.38;6.47;;;;;;;;;;5038294;28;20041;-76
2023/06/22 07:55:39;;;;;;;14.07;6.30;;;;;;;;;;5018002;28;20053;-78
2023/06/22 07:58:05;;;;;;;8.37;6.80;;;;;;;;;;5035053;28;20028;-77
2023/06/22 08:00:30;;;;;;;21.57;10.40;;;;;;;;;;5034879;28;20254;-75
2023/06/22 08:02:56;;;;;;;26.60;11.10;;;;;;;;;;5034890;28;20271;-75
2023/06/22 08:05:21;;;;;;;8.55;6.55;;;;;;;;;;5018194;28;20025;-77
2023/06/22 08:07:46;;;;;;;11.53;6.50;;;;;;;;;;5034921;28;20021;-77
2023/06/22 08:10:12;;;;;;;7.78;6.28;;;;;;;;;;5036140;28;20025;-83
2023/06/22 08:12:38;;;;;;;7.60;6.10;;;;;;;;;;5035149;28;20029;-76
2023/06/22 08:15:05;;;;;;;7.63;6.03;;;;;;;;;;5034870;28;20021;-75
2023/06/22 08:17:31;;;;;;;19.05;8.82;;;;;;;;;;5016952;28;20029;-75
2023/06/22 08:19:56;;;;;;;10.50;6.40;;;;;;;;;;5017128;28;20021;-77
2023/06/22 08:22:21;;;;;;;7.97;5.78;;;;;;;;;;5016710;28;20021;-75
2023/06/22 08:24:47;;;;;;;6.20;5.32;;;;;;;;;;5017127;28;20036;-77
2023/06/22 08:27:13;;;;;;;8.90;6.05;;;;;;;;;;5016758;28;20041;-77
2023/06/22 08:29:39;;;;;;;7.75;5.50;;;;;;;;;;5017279;28;20017;-79
2023/06/22 08:32:04;;;;;;;14.82;6.30;;;;;;;;;;5035549;28;20491;-77
2023/06/22 08:34:30;;;;;;;6.90;5.20;;;;;;;;;;5016670;28;20034;-77
2023/06/22 08:36:55;;;;;;;8.63;5.45;;;;;;;;;;5035850;28;20088;-78
2023/06/22 08:39:21;;;;;;;6.97;4.60;;;;;;;;;;5037328;28;20021;-79
2023/06/22 08:41:47;;;;;;;8.43;5.68;;;;;;;;;;5019768;28;20068;-80
2023/06/22 08:44:13;;;;;;;10.30;5.15;;;;;;;;;;5039535;28;20028;-77
2023/06/22 08:46:40;;;;;;;5.90;5.20;;;;;;;;;;5018206;28;20029;-78
2023/06/22 08:49:06;;;;;;;124.45;40.22;;;;;;;;;;5038798;28;20105;-76
2023/06/22 08:51:31;;;;;;;25.75;10.02;;;;;;;;;;5037533;28;20075;-77
2023/06/22 08:53:56;;;;;;;24.13;9.33;;;;;;;;;;5035893;28;20029;-77
2023/06/22 08:56:21;;;;;;;14.73;7.00;;;;;;;;;;5032457;28;20121;-76
2023/06/22 08:58:46;;;;;;;20.40;7.63;;;;;;;;;;5035896;28;20057;-83
2023/06/22 09:01:12;;;;;;;7.33;5.00;;;;;;;;;;5036040;28;20677;-74
2023/06/22 09:03:37;;;;;;;7.23;4.93;;;;;;;;;;5034103;28;20746;-75
2023/06/22 09:06:03;;;;;;;5.80;4.97;;;;;;;;;;5034389;28;20294;-77
2023/06/22 09:08:40;;;;;;;6.20;5.20;;;;;;;;;;5119464;27;1173670;-76
2023/06/22 09:11:05;;;;;;;9.90;5.10;;;;;;;;;;5131203;28;20070;-76
2023/06/22 09:13:31;;;;;;;5.70;4.60;;;;;;;;;;5130978;28;20067;-76
2023/06/22 09:15:56;;;;;;;7.10;4.88;;;;;;;;;;5127858;28;20055;-77
2023/06/22 09:18:21;;;;;;;9.53;5.30;;;;;;;;;;5110986;28;20023;-76
2023/06/22 09:20:46;;;;;;;6.90;4.73;;;;;;;;;;5110781;28;20040;-76
2023/06/22 09:23:12;;;;;;;6.80;4.73;;;;;;;;;;5110434;28;20132;-77
2023/06/22 09:25:37;;;;;;;7.75;4.70;;;;;;;;;;5108921;28;20304;-76
2023/06/22 09:28:02;;;;;;;6.13;5.07;;;;;;;;;;5108970;28;20031;-77
2023/06/22 09:30:28;;;;;;;6.78;5.13;;;;;;;;;;5110038;28;20028;-76
2023/06/22 09:32:54;;;;;;;6.00;4.80;;;;;;;;;;5108621;28;20537;-77
2023/06/22 09:35:19;;;;;;;8.68;4.68;;;;;;;;;;5108640;28;20394;-75
2023/06/22 09:37:45;;;;;;;6.75;5.00;;;;;;;;;;5110207;28;20020;-76
2023/06/22 09:40:12;;;;;;;8.95;5.10;;;;;;;;;;5108942;28;20091;-75
2023/06/22 09:42:38;;;;;;;12.10;4.82;;;;;;;;;;5110286;28;20020;-76
2023/06/22 09:45:03;;;;;;;7.70;4.95;;;;;;;;;;5110397;28;20076;-75
2023/06/22 09:47:29;;;;;;;6.68;4.68;;;;;;;;;;5110131;28;20526;-75
2023/06/22 09:49:55;;;;;;;6.10;4.85;;;;;;;;;;5108919;28;20123;-76
2023/06/22 09:52:21;;;;;;;6.40;5.25;;;;;;;;;;5109121;28;20444;-76
2023/06/22 09:54:46;;;;;;;7.03;5.10;;;;;;;;;;5110173;28;20077;-76
2023/06/22 09:57:11;;;;;;;6.67;4.83;;;;;;;;;;5109092;28;20503;-76
2023/06/22 09:59:36;;;;;;;5.30;4.50;;;;;;;;;;5109799;28;20501;-74
2023/06/22 10:02:02;;;;;;;5.72;4.85;;;;;;;;;;5108436;28;20023;-74
2023/06/22 10:04:27;;;;;;;7.73;4.80;;;;;;;;;;5108563;28;20092;-74
2023/06/22 10:06:52;;;;;;;6.97;5.05;;;;;;;;;;5108381;28;20793;-74
2023/06/22 10:09:17;;;;;;;7.63;5.00;;;;;;;;;;5109951;28;20072;-75
2023/06/22 10:11:43;;;;;;;7.72;4.90;;;;;;;;;;5109949;28;20267;-75
2023/06/22 10:14:08;;;;;;;8.35;4.95;;;;;;;;;;5108667;28;20051;-75
2023/06/22 10:16:35;;;;;;;6.97;5.27;;;;;;;;;;5109785;28;20024;-75
2023/06/22 10:19:01;;;;;;;8.13;5.20;;;;;;;;;;5102340;28;20027;-75
2023/06/22 10:21:28;;;;;;;8.57;5.45;;;;;;;;;;5096794;28;20390;-75
2023/06/22 10:23:53;;;;;;;16.33;5.18;;;;;;;;;;5094841;28;20077;-75
2023/06/22 10:26:18;;;;;;;8.27;5.60;;;;;;;;;;5095628;28;20421;-75
2023/06/22 10:28:44;;;;;;;6.25;5.30;;;;;;;;;;5096385;28;20257;-75
2023/06/22 10:31:09;;;;;;;7.13;5.40;;;;;;;;;;5096194;28;20061;-75
2023/06/22 10:33:34;;;;;;;8.18;5.95;;;;;;;;;;5095845;28;20032;-75
2023/06/22 10:35:59;;;;;;;8.10;5.60;;;;;;;;;;5094595;28;20023;-74
2023/06/22 10:38:24;;;;;;;13.17;6.00;;;;;;;;;;5096415;28;20023;-76
2023/06/22 10:40:50;;;;;;;8.35;5.30;;;;;;;;;;5096252;28;20024;-75
2023/06/22 10:43:15;;;;;;;6.68;5.47;;;;;;;;;;5094633;28;20049;-75
2023/06/22 10:45:40;;;;;;;8.47;5.73;;;;;;;;;;5096077;28;20031;-74
2023/06/22 10:48:05;;;;;;;6.73;5.40;;;;;;;;;;5095858;28;20028;-75
2023/06/22 10:50:31;;;;;;;6.03;5.03;;;;;;;;;;5095602;28;20039;-75
2023/06/22 10:52:56;;;;;;;6.73;5.40;;;;;;;;;;5095887;28;20032;-75
2023/06/22 10:55:21;;;;;;;5.97;5.37;;;;;;;;;;5096001;28;20028;-75
2023/06/22 10:57:46;;;;;;;6.93;5.25;;;;;;;;;;5094438;28;20081;-75
2023/06/22 11:00:13;;;;;;;6.72;5.15;;;;;;;;;;5095736;28;20069;-75
2023/06/22 11:02:38;;;;;;;8.50;5.28;;;;;;;;;;5095353;28;20454;-75
2023/06/22 11:05:04;;;;;;;7.00;5.80;;;;;;;;;;5093990;28;20055;-75
2023/06/22 11:07:29;;;;;;;6.60;5.45;;;;;;;;;;5094883;28;20479;-75
2023/06/22 11:09:54;;;;;;;5.83;5.00;;;;;;;;;;5093917;28;20115;-75
2023/06/22 11:12:20;;;;;;;7.35;5.47;;;;;;;;;;5095240;28;20263;-75
2023/06/22 11:14:45;;;;;;;12.00;5.28;;;;;;;;;;5095168;28;20024;-75
2023/06/22 11:17:10;;;;;;;7.73;5.70;;;;;;;;;;5095344;28;20016;-75
2023/06/22 11:19:36;;;;;;;8.07;5.50;;;;;;;;;;5095114;28;20020;-75
2023/06/22 11:22:01;;;;;;;9.70;5.30;;;;;;;;;;5093841;28;20024;-75
2023/06/22 11:24:27;;;;;;;9.38;5.70;;;;;;;;;;5095223;28;20019;-75
2023/06/22 11:26:52;;;;;;;6.93;5.37;;;;;;;;;;5093307;28;20024;-74
2023/06/22 11:29:17;;;;;;;8.20;5.60;;;;;;;;;;5093540;28;20489;-75
2023/06/22 11:31:43;;;;;;;6.05;5.22;;;;;;;;;;5093744;28;20332;-75
2023/06/22 11:34:08;;;;;;;6.88;5.47;;;;;;;;;;5093555;28;20400;-75
2023/06/22 11:36:35;;;;;;;9.38;5.68;;;;;;;;;;5094545;28;20081;-75
2023/06/22 11:39:00;;;;;;;6.80;5.47;;;;;;;;;;5094747;28;20479;-76
2023/06/22 11:41:26;;;;;;;7.80;5.15;;;;;;;;;;5094825;28;20077;-75
2023/06/22 11:43:51;;;;;;;8.70;5.33;;;;;;;;;;5094859;28;20119;-75
2023/06/22 11:46:16;;;;;;;8.90;5.57;;;;;;;;;;5094240;28;20260;-75
2023/06/22 11:48:41;;;;;;;6.82;5.40;;;;;;;;;;5094882;28;20645;-73
2023/06/22 11:51:07;;;;;;;8.90;5.60;;;;;;;;;;5094677;28;20027;-75
2023/06/22 11:53:34;;;;;;;6.30;5.38;;;;;;;;;;5094469;28;20043;-75
2023/06/22 11:56:00;;;;;;;5.53;4.90;;;;;;;;;;5094468;28;20383;-75
2023/06/22 11:58:26;;;;;;;6.43;5.28;;;;;;;;;;5093319;28;20020;-75
2023/06/22 12:00:51;;;;;;;8.17;5.13;;;;;;;;;;5092861;28;20035;-75
2023/06/22 12:03:17;;;;;;;7.30;5.25;;;;;;;;;;5094267;28;20241;-75
2023/06/22 12:05:42;;;;;;;9.35;5.63;;;;;;;;;;5093226;28;20047;-75
2023/06/22 12:08:07;;;;;;;7.10;5.30;;;;;;;;;;5092536;28;20135;-75
2023/06/22 12:10:33;;;;;;;6.18;5.28;;;;;;;;;;5092878;28;20169;-76
2023/06/22 12:12:59;;;;;;;6.53;5.20;;;;;;;;;;5094175;28;20107;-75
2023/06/22 12:15:25;;;;;;;7.00;5.45;;;;;;;;;;5093997;28;20027;-75
2023/06/22 12:17:50;;;;;;;7.00;5.30;;;;;;;;;;5093827;28;20055;-75
2023/06/22 12:20:16;;;;;;;6.10;5.20;;;;;;;;;;5094418;28;20031;-75
2023/06/22 12:22:41;;;;;;;7.73;4.97;;;;;;;;;;5092739;28;20020;-76
2023/06/22 12:25:08;;;;;;;7.10;5.35;;;;;;;;;;5093797;28;20279;-75
2023/06/22 12:27:34;;;;;;;5.85;5.05;;;;;;;;;;5094068;28;20028;-75
2023/06/22 12:29:59;;;;;;;7.70;5.50;;;;;;;;;;5092528;28;20026;-75
2023/06/22 12:32:25;;;;;;;8.97;5.47;;;;;;;;;;5093922;28;20020;-75
2023/06/22 12:34:50;;;;;;;6.22;5.00;;;;;;;;;;5093852;28;20259;-75
2023/06/22 12:37:16;;;;;;;8.82;5.40;;;;;;;;;;5093695;28;20024;-75
2023/06/22 12:39:41;;;;;;;6.43;5.00;;;;;;;;;;5093668;28;20024;-75
2023/06/22 12:42:08;;;;;;;6.88;5.53;;;;;;;;;;5093642;28;20100;-76
2023/06/22 12:44:34;;;;;;;7.43;5.75;;;;;;;;;;5093471;28;20019;-75
2023/06/22 12:46:59;;;;;;;6.57;5.50;;;;;;;;;;5092190;28;20023;-76
2023/06/22 12:49:24;;;;;;;7.83;5.27;;;;;;;;;;5092016;28;20028;-76
2023/06/22 12:51:49;;;;;;;5.93;4.97;;;;;;;;;;5093209;28;20051;-76
2023/06/22 12:54:15;;;;;;;7.73;5.77;;;;;;;;;;5093558;28;20027;-75
2023/06/22 12:56:40;;;;;;;8.13;5.13;;;;;;;;;;5093697;28;20027;-75
2023/06/22 12:59:06;;;;;;;6.53;4.95;;;;;;;;;;5093401;28;20020;-76
2023/06/22 13:01:31;;;;;;;8.48;5.43;;;;;;;;;;5093592;28;20024;-76
2023/06/22 13:03:58;;;;;;;13.30;5.60;;;;;;;;;;5092145;28;20413;-75
2023/06/22 13:06:23;;;;;;;10.40;5.60;;;;;;;;;;5093399;28;20032;-75
2023/06/22 13:08:48;;;;;;;6.20;5.22;;;;;;;;;;5093359;28;20093;-76
2023/06/22 13:11:13;;;;;;;6.43;5.28;;;;;;;;;;5092129;28;20043;-76
2023/06/22 13:13:40;;;;;;;8.50;5.07;;;;;;;;;;5091616;28;20062;-75
2023/06/22 13:16:05;;;;;;;7.82;5.00;;;;;;;;;;5093041;28;20347;-75
2023/06/22 13:18:30;;;;;;;7.10;5.63;;;;;;;;;;5093116;28;20466;-76
2023/06/22 13:20:55;;;;;;;6.47;5.15;;;;;;;;;;5091767;28;20020;-76
2023/06/22 13:23:21;;;;;;;7.57;5.13;;;;;;;;;;5093055;28;20028;-76
2023/06/22 13:25:47;;;;;;;9.98;5.38;;;;;;;;;;5093295;28;20394;-76
2023/06/22 13:28:13;;;;;;;8.23;5.60;;;;;;;;;;5093196;28;20028;-75
2023/06/22 13:30:40;;;;;;;8.30;5.30;;;;;;;;;;5093226;28;20440;-75
2023/06/22 13:33:05;;;;;;;8.43;5.95;;;;;;;;;;5093340;28;20032;-75
2023/06/22 13:35:30;;;;;;;8.13;5.27;;;;;;;;;;5091688;28;20486;-75
2023/06/22 13:37:55;;;;;;;8.13;5.63;;;;;;;;;;5092870;28;20471;-75
2023/06/22 13:40:21;;;;;;;8.90;5.57;;;;;;;;;;5091600;28;20027;-75
2023/06/22 13:42:46;;;;;;;8.23;5.53;;;;;;;;;;5092628;28;20039;-75
2023/06/22 13:45:12;;;;;;;7.50;4.90;;;;;;;;;;5093281;28;20070;-74
2023/06/22 13:47:37;;;;;;;6.27;5.00;;;;;;;;;;5092804;28;20036;-75
2023/06/22 13:50:03;;;;;;;6.53;5.50;;;;;;;;;;5091617;28;20257;-75
2023/06/22 13:52:28;;;;;;;8.95;5.40;;;;;;;;;;5093203;28;20368;-75
2023/06/22 13:54:53;;;;;;;8.03;5.57;;;;;;;;;;5095734;28;20024;-75
2023/06/22 13:57:18;;;;;;;15.73;5.60;;;;;;;;;;5096581;28;20035;-76
2023/06/22 13:59:43;;;;;;;6.17;5.20;;;;;;;;;;5095497;28;20032;-77
2023/06/22 14:02:09;;;;;;;10.90;5.50;;;;;;;;;;5096727;28;20031;-75
2023/06/22 14:04:34;;;;;;;8.07;5.47;;;;;;;;;;5097205;28;20040;-75
2023/06/22 14:06:59;;;;;;;8.33;5.60;;;;;;;;;;5096405;28;20020;-76
2023/06/22 14:09:25;;;;;;;8.33;5.30;;;;;;;;;;5096988;28;20257;-75
2023/06/22 14:11:50;;;;;;;8.55;5.65;;;;;;;;;;5096380;28;20263;-75
2023/06/22 14:14:15;;;;;;;6.30;5.20;;;;;;;;;;5095130;28;20410;-75
2023/06/22 14:16:40;;;;;;;7.07;5.37;;;;;;;;;;5095433;28;20363;-75
2023/06/22 14:19:06;;;;;;;7.67;5.57;;;;;;;;;;5096105;28;20249;-75
2023/06/22 14:21:31;;;;;;;6.03;5.33;;;;;;;;;;5096222;28;20035;-75
2023/06/22 14:23:56;;;;;;;8.10;5.60;;;;;;;;;;5096356;28;20256;-75
2023/06/22 14:26:22;;;;;;;8.70;5.60;;;;;;;;;;5094854;28;20016;-75
2023/06/22 14:28:48;;;;;;;9.30;5.10;;;;;;;;;;5096664;28;20089;-75
2023/06/22 14:31:14;;;;;;;9.07;5.32;;;;;;;;;;5094472;28;20027;-75
2023/06/22 14:33:40;;;;;;;8.27;5.47;;;;;;;;;;5096412;28;20071;-75
2023/06/22 14:36:05;;;;;;;6.97;5.50;;;;;;;;;;5096018;28;20455;-75
2023/06/22 14:38:30;;;;;;;9.27;6.00;;;;;;;;;;5095807;28;20069;-75
2023/06/22 14:40:55;;;;;;;8.13;5.60;;;;;;;;;;5095830;28;20304;-75
2023/06/22 14:43:21;;;;;;;6.32;5.50;;;;;;;;;;5095935;28;20479;-76
2023/06/22 14:45:46;;;;;;;9.00;5.70;;;;;;;;;;5094319;28;20120;-76
2023/06/22 14:48:11;;;;;;;8.00;5.37;;;;;;;;;;5096024;28;20039;-75
2023/06/22 14:50:36;;;;;;;7.30;5.37;;;;;;;;;;5095686;28;20024;-76
2023/06/22 14:53:02;;;;;;;7.40;5.70;;;;;;;;;;5093966;28;20036;-76
2023/06/22 14:55:27;;;;;;;8.03;5.57;;;;;;;;;;5095621;28;20028;-76
2023/06/22 14:57:52;;;;;;;11.93;5.30;;;;;;;;;;5095350;28;20023;-76
2023/06/22 15:00:18;;;;;;;9.00;5.90;;;;;;;;;;5095658;28;20032;-76
2023/06/22 15:02:43;;;;;;;6.30;5.60;;;;;;;;;;5095329;28;20115;-75
2023/06/22 15:05:09;;;;;;;8.23;5.87;;;;;;;;;;5095242;28;20039;-75
2023/06/22 15:07:34;;;;;;;8.65;6.03;;;;;;;;;;5095056;28;20288;-75
2023/06/22 15:09:59;;;;;;;10.10;6.00;;;;;;;;;;5094926;28;20529;-75
2023/06/22 15:12:27;;;;;;;9.53;5.57;;;;;;;;;;5094802;28;20019;-75
2023/06/22 15:14:52;;;;;;;8.98;5.70;;;;;;;;;;5094948;28;20020;-75
2023/06/22 15:17:17;;;;;;;10.13;6.03;;;;;;;;;;5093575;28;20019;-75
2023/06/22 15:19:42;;;;;;;8.37;5.97;;;;;;;;;;5094716;28;20623;-73
2023/06/22 15:22:08;;;;;;;8.60;6.00;;;;;;;;;;5094963;28;20269;-76
2023/06/22 15:24:34;;;;;;;9.82;5.70;;;;;;;;;;5094692;28;20451;-75
2023/06/22 15:27:00;;;;;;;10.18;5.72;;;;;;;;;;5094604;28;20099;-75
2023/06/22 15:29:25;;;;;;;8.15;5.47;;;;;;;;;;5094558;28;20058;-75
2023/06/22 15:31:53;;;;;;;9.90;5.93;;;;;;;;;;5094582;28;20032;-75
2023/06/22 15:34:18;;;;;;;10.55;5.65;;;;;;;;;;5094407;28;20324;-76
2023/06/22 15:36:49;;;;;;;10.65;6.15;;;;;;;;;;5094643;28;20032;-76
2023/06/22 15:39:16;;;;;;;11.65;5.82;;;;;;;;;;5095166;28;20059;-75
2023/06/22 15:41:44;;;;;;;7.78;5.88;;;;;;;;;;5094649;28;20024;-75
2023/06/22 15:44:09;;;;;;;8.93;5.82;;;;;;;;;;5094252;28;20020;-75
2023/06/22 15:46:35;;;;;;;9.03;5.77;;;;;;;;;;5094471;28;20103;-77
2023/06/22 15:49:00;;;;;;;10.63;5.95;;;;;;;;;;5094345;28;20260;-76
2023/06/22 15:51:25;;;;;;;6.22;5.57;;;;;;;;;;5094572;28;20023;-75
2023/06/22 15:53:50;;;;;;;6.20;5.47;;;;;;;;;;5094252;28;20031;-76
2023/06/22 15:56:20;;;;;;;9.43;6.37;;;;;;;;;;5094300;28;20627;-74
2023/06/22 15:58:45;;;;;;;7.70;5.65;;;;;;;;;;5094489;28;20012;-75
2023/06/22 16:01:13;;;;;;;8.13;5.50;;;;;;;;;;5094006;28;20016;-76
2023/06/22 16:03:38;;;;;;;8.43;6.50;;;;;;;;;;5094214;28;20282;-76
2023/06/22 16:06:04;;;;;;;8.23;5.97;;;;;;;;;;5093928;28;20036;-76
2023/06/22 16:08:30;;;;;;;12.15;5.93;;;;;;;;;;5093764;28;20491;-77
2023/06/22 16:10:56;;;;;;;6.28;5.57;;;;;;;;;;5094094;28;20020;-77
2023/06/22 16:13:21;;;;;;;9.25;5.80;;;;;;;;;;5094227;28;20528;-76
2023/06/22 16:15:46;;;;;;;9.07;6.10;;;;;;;;;;5094111;28;20050;-75
2023/06/22 16:18:11;;;;;;;7.90;5.80;;;;;;;;;;5092060;28;20032;-76
2023/06/22 16:20:37;;;;;;;9.33;6.27;;;;;;;;;;5094145;28;20036;-77
2023/06/22 16:23:02;;;;;;;11.43;6.17;;;;;;;;;;5093883;28;20031;-76